sensor_id;sensor_type;location;lat;lon;timestamp;P1;P2;P0
57373;PMS7003;43964;53.890;25.340;2023-02-11T00:02:01;2.6;1.8;1.2
57373;PMS7003;43964;53.890;25.340;2023-02-11T00:06:53;2.6;2;1.2
57373;PMS7003;43964;53.890;25.340;2023-02-11T00:11:51;3;2;1.2
57373;PMS7003;43964;53.890;25.340;2023-02-11T00:17:03;2.6;1.6;0.8
57373;PMS7003;43964;53.890;25.340;2023-02-11T00:21:25;2.3;2;1
57373;PMS7003;43964;53.890;25.340;2023-02-11T00:26:49;1.3;1;0.3
57373;PMS7003;43964;53.890;25.340;2023-02-11T00:31:13;2.8;2.2;1.4
57373;PMS7003;43964;53.890;25.340;2023-02-11T00:36:51;2.8;2;1.4
57373;PMS7003;43964;53.890;25.340;2023-02-11T00:41:39;2.6;1.6;0.8
57373;PMS7003;43964;53.890;25.340;2023-02-11T00:46:31;4.6;3.2;1.6
57373;PMS7003;43964;53.890;25.340;2023-02-11T00:51:41;3.2;3.2;1.6
57373;PMS7003;43964;53.890;25.340;2023-02-11T00:57:05;3.8;3;1.4
57373;PMS7003;43964;53.890;25.340;2023-02-11T01:01:49;3.4;2.6;1.4
57373;PMS7003;43964;53.890;25.340;2023-02-11T01:06:39;3.4;2.8;1.6
57373;PMS7003;43964;53.890;25.340;2023-02-11T01:11:39;3.5;2.8;1.5
57373;PMS7003;43964;53.890;25.340;2023-02-11T01:16:13;3.2;2.6;1.4
57373;PMS7003;43964;53.890;25.340;2023-02-11T01:21:49;4;3.2;1.6
57373;PMS7003;43964;53.890;25.340;2023-02-11T01:26:37;2.2;1.8;0.8
57373;PMS7003;43964;53.890;25.340;2023-02-11T01:31:37;1.6;1.4;0.6
57373;PMS7003;43964;53.890;25.340;2023-02-11T01:36:13;3;2.8;1.8
57373;PMS7003;43964;53.890;25.340;2023-02-11T01:42:03;2.6;2.6;1.6
57373;PMS7003;43964;53.890;25.340;2023-02-11T01:46:28;3;2.4;1.2
57373;PMS7003;43964;53.890;25.340;2023-02-11T01:51:52;2.3;2;1.3
57373;PMS7003;43964;53.890;25.340;2023-02-11T01:56:35;3.3;3.3;2
57373;PMS7003;43964;53.890;25.340;2023-02-11T02:01:50;3;2;1
57373;PMS7003;43964;53.890;25.340;2023-02-11T02:06:42;4.7;2.7;1
57373;PMS7003;43964;53.890;25.340;2023-02-11T02:11:13;3;2.8;1.3
57373;PMS7003;43964;53.890;25.340;2023-02-11T02:16:51;3;3;1
57373;PMS7003;43964;53.890;25.340;2023-02-11T02:21:25;3.5;2.5;1.5
57373;PMS7003;43964;53.890;25.340;2023-02-11T02:26:27;2.8;1.8;0.8
57373;PMS7003;43964;53.890;25.340;2023-02-11T02:31:44;2;1.5;0.8
57373;PMS7003;43964;53.890;25.340;2023-02-11T02:37:03;3.7;2.7;1.3
57373;PMS7003;43964;53.890;25.340;2023-02-11T02:41:39;3.3;2;1
57373;PMS7003;43964;53.890;25.340;2023-02-11T02:46:49;6;4.3;2
57373;PMS7003;43964;53.890;25.340;2023-02-11T02:51:46;3.3;2;1.3
57373;PMS7003;43964;53.890;25.340;2023-02-11T02:56:13;3.3;2.3;1.7
57373;PMS7003;43964;53.890;25.340;2023-02-11T03:01:41;4;3;1.5
57373;PMS7003;43964;53.890;25.340;2023-02-11T03:06:28;4.4;2.6;1.4
57373;PMS7003;43964;53.890;25.340;2023-02-11T03:12:03;3;2.4;1
57373;PMS7003;43964;53.890;25.340;2023-02-11T03:17:03;3;2.2;1.8
57373;PMS7003;43964;53.890;25.340;2023-02-11T03:21:39;3.8;2.8;1.5
57373;PMS7003;43964;53.890;25.340;2023-02-11T03:27:05;3.6;2.8;1.2
57373;PMS7003;43964;53.890;25.340;2023-02-11T03:32:04;5.8;3.8;1.3
57373;PMS7003;43964;53.890;25.340;2023-02-11T03:36:13;3.7;2.7;1
57373;PMS7003;43964;53.890;25.340;2023-02-11T03:41:13;3.6;2.4;0.8
57373;PMS7003;43964;53.890;25.340;2023-02-11T03:47:06;2.4;1.8;0.6
57373;PMS7003;43964;53.890;25.340;2023-02-11T03:51:39;3.6;2.4;1.4
57373;PMS7003;43964;53.890;25.340;2023-02-11T03:56:13;3;2.7;2
57373;PMS7003;43964;53.890;25.340;2023-02-11T04:01:13;2.7;1.7;0.7
57373;PMS7003;43964;53.890;25.340;2023-02-11T04:06:41;3;2.7;1.7
57373;PMS7003;43964;53.890;25.340;2023-02-11T04:11:13;4.5;3.8;1.8
57373;PMS7003;43964;53.890;25.340;2023-02-11T04:16:39;2.7;1.3;0.3
57373;PMS7003;43964;53.890;25.340;2023-02-11T04:22:03;2;1.5;0.8
57373;PMS7003;43964;53.890;25.340;2023-02-11T04:26:49;3;2.5;1.5
57373;PMS7003;43964;53.890;25.340;2023-02-11T04:32:03;2.7;2;1.3
57373;PMS7003;43964;53.890;25.340;2023-02-11T04:36:13;3.5;2;1.5
57373;PMS7003;43964;53.890;25.340;2023-02-11T04:41:51;4.8;2.8;2
57373;PMS7003;43964;53.890;25.340;2023-02-11T04:46:13;2.4;1.8;1.2
57373;PMS7003;43964;53.890;25.340;2023-02-11T04:51:13;4.6;3.4;1.8
57373;PMS7003;43964;53.890;25.340;2023-02-11T04:56:39;3;2.2;1.2
57373;PMS7003;43964;53.890;25.340;2023-02-11T05:01:49;5.5;3.5;1.5
57373;PMS7003;43964;53.890;25.340;2023-02-11T05:07:03;5;4;1.8
57373;PMS7003;43964;53.890;25.340;2023-02-11T05:11:13;2.8;1.6;1
57373;PMS7003;43964;53.890;25.340;2023-02-11T05:17:05;5.6;4;2
57373;PMS7003;43964;53.890;25.340;2023-02-11T05:21:13;4.4;3.4;2.2
57373;PMS7003;43964;53.890;25.340;2023-02-11T05:26:51;4;3.6;2.8
57373;PMS7003;43964;53.890;25.340;2023-02-11T05:31:27;3.2;3;1.8
57373;PMS7003;43964;53.890;25.340;2023-02-11T05:36:51;5.2;3.4;1.8
57373;PMS7003;43964;53.890;25.340;2023-02-11T05:41:27;5.2;4.8;2.4
57373;PMS7003;43964;53.890;25.340;2023-02-11T05:46:49;4.3;4;2.7
57373;PMS7003;43964;53.890;25.340;2023-02-11T05:51:49;6.8;4.8;2.8
57373;PMS7003;43964;53.890;25.340;2023-02-11T05:57:05;8;6.8;3.3
57373;PMS7003;43964;53.890;25.340;2023-02-11T06:02:01;8;5.7;3.3
57373;PMS7003;43964;53.890;25.340;2023-02-11T06:06:49;5.3;4.8;2.3
57373;PMS7003;43964;53.890;25.340;2023-02-11T06:11:53;4.5;4.5;2.5
57373;PMS7003;43964;53.890;25.340;2023-02-11T06:16:41;5.5;4;2.5
57373;PMS7003;43964;53.890;25.340;2023-02-11T06:21:37;6.8;5;3
57373;PMS7003;43964;53.890;25.340;2023-02-11T06:26:15;9.5;6.8;4
57373;PMS7003;43964;53.890;25.340;2023-02-11T06:31:47;4;3.8;2
57373;PMS7003;43964;53.890;25.340;2023-02-11T06:36:39;4.3;3.5;1.5
57373;PMS7003;43964;53.890;25.340;2023-02-11T06:41:49;4.3;3.3;1.3
57373;PMS7003;43964;53.890;25.340;2023-02-11T06:46:51;4.4;4;2.8
57373;PMS7003;43964;53.890;25.340;2023-02-11T06:52:01;6.2;5.6;3
57373;PMS7003;43964;53.890;25.340;2023-02-11T06:57:03;3.4;2.8;1.8
57373;PMS7003;43964;53.890;25.340;2023-02-11T07:01:27;3.4;2.6;1.4
57373;PMS7003;43964;53.890;25.340;2023-02-11T07:07:03;3;2.3;1.3
57373;PMS7003;43964;53.890;25.340;2023-02-11T07:11:27;4;2.8;1.8
57373;PMS7003;43964;53.890;25.340;2023-02-11T07:17:05;1.8;1.6;0.8
57373;PMS7003;43964;53.890;25.340;2023-02-11T07:21:51;5;3.4;2.2
57373;PMS7003;43964;53.890;25.340;2023-02-11T07:26:53;5.4;3.8;2
57373;PMS7003;43964;53.890;25.340;2023-02-11T07:31:39;7.4;4.8;2.8
57373;PMS7003;43964;53.890;25.340;2023-02-11T07:37:03;5;4.2;2.2
57373;PMS7003;43964;53.890;25.340;2023-02-11T07:41:41;6.2;4.8;2.2
57373;PMS7003;43964;53.890;25.340;2023-02-11T07:47:03;4.4;3;2
57373;PMS7003;43964;53.890;25.340;2023-02-11T07:51:49;5;3.2;2
57373;PMS7003;43964;53.890;25.340;2023-02-11T07:56:13;4.3;3.8;2
57373;PMS7003;43964;53.890;25.340;2023-02-11T08:01:13;5.3;4.7;2.3
57373;PMS7003;43964;53.890;25.340;2023-02-11T08:06:27;5.3;4;1.8
57373;PMS7003;43964;53.890;25.340;2023-02-11T08:11:49;5;4.3;2.7
57373;PMS7003;43964;53.890;25.340;2023-02-11T08:16:51;6;3.7;2
57373;PMS7003;43964;53.890;25.340;2023-02-11T08:21:39;6.5;4.5;2.3
57373;PMS7003;43964;53.890;25.340;2023-02-11T08:26:13;5.7;4.7;2.3
57373;PMS7003;43964;53.890;25.340;2023-02-11T08:31:49;6.3;5.3;2.8
57373;PMS7003;43964;53.890;25.340;2023-02-11T08:36:25;6.5;3.8;2.3
57373;PMS7003;43964;53.890;25.340;2023-02-11T08:41:49;7.4;5.2;3.2
57373;PMS7003;43964;53.890;25.340;2023-02-11T08:46:25;7.3;5.5;3.3
57373;PMS7003;43964;53.890;25.340;2023-02-11T08:51:24;10;7.5;3.8
57373;PMS7003;43964;53.890;25.340;2023-02-11T08:56:27;5.8;4.2;3
57373;PMS7003;43964;53.890;25.340;2023-02-11T09:01:25;5.7;3.3;1.7
57373;PMS7003;43964;53.890;25.340;2023-02-11T09:07:01;5.8;4.5;2.8
57373;PMS7003;43964;53.890;25.340;2023-02-11T09:12:01;6.7;4.7;3
57373;PMS7003;43964;53.890;25.340;2023-02-11T09:16:16;5;4;2.3
57373;PMS7003;43964;53.890;25.340;2023-02-11T09:22:00;4;3;2
57373;PMS7003;43964;53.890;25.340;2023-02-11T09:27:01;7;5;2
57373;PMS7003;43964;53.890;25.340;2023-02-11T09:31:25;3.8;2.8;2
57373;PMS7003;43964;53.890;25.340;2023-02-11T09:36:41;5.8;4;2.5
57373;PMS7003;43964;53.890;25.340;2023-02-11T09:42:07;5.5;5;3
57373;PMS7003;43964;53.890;25.340;2023-02-11T09:46:28;3.7;3.3;2
57373;PMS7003;43964;53.890;25.340;2023-02-11T09:51:14;4.7;3;1.3
57373;PMS7003;43964;53.890;25.340;2023-02-11T09:56:13;4;3.3;1.3
57373;PMS7003;43964;53.890;25.340;2023-02-11T10:01:50;5.7;4;2
57373;PMS7003;43964;53.890;25.340;2023-02-11T10:06:53;4.7;4;1.3
57373;PMS7003;43964;53.890;25.340;2023-02-11T10:11:40;5;3.8;2.2
57373;PMS7003;43964;53.890;25.340;2023-02-11T10:16:30;4.3;3.8;2.3
57373;PMS7003;43964;53.890;25.340;2023-02-11T10:21:41;5.2;4;2.4
57373;PMS7003;43964;53.890;25.340;2023-02-11T10:26:51;4.5;3.5;2.5
57373;PMS7003;43964;53.890;25.340;2023-02-11T10:31:40;6;6;3
57373;PMS7003;43964;53.890;25.340;2023-02-11T10:36:51;4.5;3;1.8
57373;PMS7003;43964;53.890;25.340;2023-02-11T10:41:15;4.8;3.3;1.3
57373;PMS7003;43964;53.890;25.340;2023-02-11T10:46:39;4.5;3.5;2
57373;PMS7003;43964;53.890;25.340;2023-02-11T10:51:29;3;2.8;1.3
57373;PMS7003;43964;53.890;25.340;2023-02-11T10:56:49;3;2;1
57373;PMS7003;43964;53.890;25.340;2023-02-11T11:01:54;3.8;3.2;1.4
57373;PMS7003;43964;53.890;25.340;2023-02-11T11:06:39;2.4;2;1
57373;PMS7003;43964;53.890;25.340;2023-02-11T11:12:05;2.8;2.2;1.2
57373;PMS7003;43964;53.890;25.340;2023-02-11T11:16:37;2.4;2.2;1.2
57373;PMS7003;43964;53.890;25.340;2023-02-11T11:21:51;3;2;1.2
57373;PMS7003;43964;53.890;25.340;2023-02-11T11:26:39;2.2;1.8;0.8
57373;PMS7003;43964;53.890;25.340;2023-02-11T11:31:52;1.5;1.5;0.8
57373;PMS7003;43964;53.890;25.340;2023-02-11T11:36:30;3;1.6;0.4
57373;PMS7003;43964;53.890;25.340;2023-02-11T11:41:39;3.6;1.6;1
57373;PMS7003;43964;53.890;25.340;2023-02-11T11:46:52;1.4;0.8;0.8
57373;PMS7003;43964;53.890;25.340;2023-02-11T11:51:50;4.3;2.7;1
57373;PMS7003;43964;53.890;25.340;2023-02-11T11:57:05;3;2;1
57373;PMS7003;43964;53.890;25.340;2023-02-11T12:01:34;2.8;2;1.2
57373;PMS7003;43964;53.890;25.340;2023-02-11T12:07:09;2.6;1.8;0.8
57373;PMS7003;43964;53.890;25.340;2023-02-11T12:11:30;3.5;2.3;1.3
57373;PMS7003;43964;53.890;25.340;2023-02-11T12:16:42;3.4;3;1.4
57373;PMS7003;43964;53.890;25.340;2023-02-11T12:21:16;2.5;2.5;0.8
57373;PMS7003;43964;53.890;25.340;2023-02-11T12:26:13;2.5;2.3;1
57373;PMS7003;43964;53.890;25.340;2023-02-11T12:31:37;3.7;3.3;2
57373;PMS7003;43964;53.890;25.340;2023-02-11T12:36:53;4.6;2.6;1.2
57373;PMS7003;43964;53.890;25.340;2023-02-11T12:41:18;2.5;1.8;1
57373;PMS7003;43964;53.890;25.340;2023-02-11T12:47:07;2.7;2.3;2
57373;PMS7003;43964;53.890;25.340;2023-02-11T12:52:09;2;1.7;0.7
57373;PMS7003;43964;53.890;25.340;2023-02-11T12:56:52;2;1.4;0.8
57373;PMS7003;43964;53.890;25.340;2023-02-11T13:02:03;2.3;2;1
57373;PMS7003;43964;53.890;25.340;2023-02-11T13:06:13;2;1.3;0.5
57373;PMS7003;43964;53.890;25.340;2023-02-11T13:11:50;1;0.8;0.2
57373;PMS7003;43964;53.890;25.340;2023-02-11T13:16:16;2.6;1.6;0.8
57373;PMS7003;43964;53.890;25.340;2023-02-11T13:22:00;2.3;1;0.8
57373;PMS7003;43964;53.890;25.340;2023-02-11T13:26:40;1.3;1;0.5
57373;PMS7003;43964;53.890;25.340;2023-02-11T13:32:05;1.2;0.8;0.6
57373;PMS7003;43964;53.890;25.340;2023-02-11T13:36:41;2.2;1.4;0.8
57373;PMS7003;43964;53.890;25.340;2023-02-11T13:42:03;1.7;1.3;0.7
57373;PMS7003;43964;53.890;25.340;2023-02-11T13:46:13;3.8;3;1.5
57373;PMS7003;43964;53.890;25.340;2023-02-11T13:51:39;2.5;2;1
57373;PMS7003;43964;53.890;25.340;2023-02-11T13:56:39;2.5;2;1
57373;PMS7003;43964;53.890;25.340;2023-02-11T14:02:00;1.5;1.3;1
57373;PMS7003;43964;53.890;25.340;2023-02-11T14:07:20;2;1.6;1.2
57373;PMS7003;43964;53.890;25.340;2023-02-11T14:12:15;1.8;1.2;0.4
57373;PMS7003;43964;53.890;25.340;2023-02-11T14:16:40;2.4;2;0.6
57373;PMS7003;43964;53.890;25.340;2023-02-11T14:21:33;1.6;1.4;0.6
57373;PMS7003;43964;53.890;25.340;2023-02-11T14:27:03;2.8;1.6;0.4
57373;PMS7003;43964;53.890;25.340;2023-02-11T14:31:13;1.2;1;0.4
57373;PMS7003;43964;53.890;25.340;2023-02-11T14:37:02;2;1.7;1
57373;PMS7003;43964;53.890;25.340;2023-02-11T14:41:42;1.3;1.3;0
57373;PMS7003;43964;53.890;25.340;2023-02-11T14:46:13;2;2;1
57373;PMS7003;43964;53.890;25.340;2023-02-11T14:51:23;0.5;0.5;0
57373;PMS7003;43964;53.890;25.340;2023-02-11T14:56:17;0.5;0.5;0
57373;PMS7003;43964;53.890;25.340;2023-02-11T15:01:48;2.3;1;0
57373;PMS7003;43964;53.890;25.340;2023-02-11T15:06:15;1.3;0.8;0.3
57373;PMS7003;43964;53.890;25.340;2023-02-11T15:11:40;1;0.7;0
57373;PMS7003;43964;53.890;25.340;2023-02-11T15:16:39;0;0;0
57373;PMS7003;43964;53.890;25.340;2023-02-11T15:22:05;0.5;0.5;0
57373;PMS7003;43964;53.890;25.340;2023-02-11T15:26:13;0.3;0.3;0
57373;PMS7003;43964;53.890;25.340;2023-02-11T15:31:45;0.5;0.3;0
57373;PMS7003;43964;53.890;25.340;2023-02-11T15:36:13;0.3;0.3;0
57373;PMS7003;43964;53.890;25.340;2023-02-11T15:41:38;0.2;0.2;0
57373;PMS7003;43964;53.890;25.340;2023-02-11T15:46:23;0;0;0
57373;PMS7003;43964;53.890;25.340;2023-02-11T15:51:17;0;0;0
57373;PMS7003;43964;53.890;25.340;2023-02-11T15:57:02;0;0;0
57373;PMS7003;43964;53.890;25.340;2023-02-11T16:02:04;0.7;0.3;0.3
57373;PMS7003;43964;53.890;25.340;2023-02-11T16:06:39;0.8;0.3;0.3
57373;PMS7003;43964;53.890;25.340;2023-02-11T16:12:17;0;0;0
57373;PMS7003;43964;53.890;25.340;2023-02-11T16:17:04;0;0;0
57373;PMS7003;43964;53.890;25.340;2023-02-11T16:21:41;0.5;0.5;0
57373;PMS7003;43964;53.890;25.340;2023-02-11T16:26:40;0.3;0.3;0
57373;PMS7003;43964;53.890;25.340;2023-02-11T16:32:04;0;0;0
57373;PMS7003;43964;53.890;25.340;2023-02-11T16:36:13;0;0;0
57373;PMS7003;43964;53.890;25.340;2023-02-11T16:41:23;0;0;0
57373;PMS7003;43964;53.890;25.340;2023-02-11T16:46:41;0;0;0
57373;PMS7003;43964;53.890;25.340;2023-02-11T16:56:53;0;0;0
57373;PMS7003;43964;53.890;25.340;2023-02-11T17:01:33;0.3;0;0
57373;PMS7003;43964;53.890;25.340;2023-02-11T17:07:03;0;0;0
57373;PMS7003;43964;53.890;25.340;2023-02-11T17:11:49;0;0;0
57373;PMS7003;43964;53.890;25.340;2023-02-11T17:16:51;0.3;0.3;0
57373;PMS7003;43964;53.890;25.340;2023-02-11T17:21:13;0;0;0
57373;PMS7003;43964;53.890;25.340;2023-02-11T17:26:51;0.6;0.2;0
57373;PMS7003;43964;53.890;25.340;2023-02-11T17:31:33;0.3;0.3;0
57373;PMS7003;43964;53.890;25.340;2023-02-11T17:36:13;0.2;0.2;0.2
57373;PMS7003;43964;53.890;25.340;2023-02-11T17:41:51;0;0;0
57373;PMS7003;43964;53.890;25.340;2023-02-11T17:46:51;0.4;0.2;0
57373;PMS7003;43964;53.890;25.340;2023-02-11T17:52:05;0.3;0;0
57373;PMS7003;43964;53.890;25.340;2023-02-11T17:56:27;0;0;0
57373;PMS7003;43964;53.890;25.340;2023-02-11T18:01:55;0.2;0.2;0
57373;PMS7003;43964;53.890;25.340;2023-02-11T18:06:25;0;0;0
57373;PMS7003;43964;53.890;25.340;2023-02-11T18:11:39;0;0;0
57373;PMS7003;43964;53.890;25.340;2023-02-11T18:16:13;0;0;0
57373;PMS7003;43964;53.890;25.340;2023-02-11T18:21:51;0;0;0
57373;PMS7003;43964;53.890;25.340;2023-02-11T18:26:13;0;0;0
57373;PMS7003;43964;53.890;25.340;2023-02-11T18:31:59;0;0;0
57373;PMS7003;43964;53.890;25.340;2023-02-11T18:36:51;0;0;0
57373;PMS7003;43964;53.890;25.340;2023-02-11T18:42:05;0;0;0
57373;PMS7003;43964;53.890;25.340;2023-02-11T18:47:03;0;0;0
57373;PMS7003;43964;53.890;25.340;2023-02-11T18:51:49;0.5;0.3;0
57373;PMS7003;43964;53.890;25.340;2023-02-11T18:57:03;0;0;0
57373;PMS7003;43964;53.890;25.340;2023-02-11T19:01:30;0;0;0
57373;PMS7003;43964;53.890;25.340;2023-02-11T19:06:41;0;0;0
57373;PMS7003;43964;53.890;25.340;2023-02-11T19:11:13;0;0;0
57373;PMS7003;43964;53.890;25.340;2023-02-11T19:17:04;0;0;0
57373;PMS7003;43964;53.890;25.340;2023-02-11T19:21:29;0;0;0
57373;PMS7003;43964;53.890;25.340;2023-02-11T19:26:49;0;0;0
57373;PMS7003;43964;53.890;25.340;2023-02-11T19:31:47;0.2;0.2;0
57373;PMS7003;43964;53.890;25.340;2023-02-11T19:37:03;0;0;0
57373;PMS7003;43964;53.890;25.340;2023-02-11T19:42:05;0;0;0
57373;PMS7003;43964;53.890;25.340;2023-02-11T19:46:35;0;0;0
57373;PMS7003;43964;53.890;25.340;2023-02-11T19:52:03;0;0;0
57373;PMS7003;43964;53.890;25.340;2023-02-11T19:56:39;0;0;0
57373;PMS7003;43964;53.890;25.340;2023-02-11T20:01:45;0;0;0
57373;PMS7003;43964;53.890;25.340;2023-02-11T20:06:14;0;0;0
57373;PMS7003;43964;53.890;25.340;2023-02-11T20:11:39;0;0;0
57373;PMS7003;43964;53.890;25.340;2023-02-11T20:16:39;0;0;0
57373;PMS7003;43964;53.890;25.340;2023-02-11T20:22:03;0;0;0
57373;PMS7003;43964;53.890;25.340;2023-02-11T20:26:53;0;0;0
57373;PMS7003;43964;53.890;25.340;2023-02-11T20:32:03;0;0;0
57373;PMS7003;43964;53.890;25.340;2023-02-11T20:36:51;0;0;0
57373;PMS7003;43964;53.890;25.340;2023-02-11T20:41:28;0;0;0
57373;PMS7003;43964;53.890;25.340;2023-02-11T20:46:41;0;0;0
57373;PMS7003;43964;53.890;25.340;2023-02-11T20:51:13;0.6;0.6;0
57373;PMS7003;43964;53.890;25.340;2023-02-11T20:56:51;0.5;0.5;0
57373;PMS7003;43964;53.890;25.340;2023-02-11T21:01:14;0;0;0
57373;PMS7003;43964;53.890;25.340;2023-02-11T21:06:36;0.2;0;0
57373;PMS7003;43964;53.890;25.340;2023-02-11T21:11:27;0.2;0;0
57373;PMS7003;43964;53.890;25.340;2023-02-11T21:17:05;0;0;0
57373;PMS7003;43964;53.890;25.340;2023-02-11T21:21:41;0;0;0
57373;PMS7003;43964;53.890;25.340;2023-02-11T21:26:37;2;1.2;0.6
57373;PMS7003;43964;53.890;25.340;2023-02-11T21:31:23;0;0;0
57373;PMS7003;43964;53.890;25.340;2023-02-11T21:36:13;0;0;0
57373;PMS7003;43964;53.890;25.340;2023-02-11T21:41:41;0.2;0;0
57373;PMS7003;43964;53.890;25.340;2023-02-11T21:46:14;0;0;0
57373;PMS7003;43964;53.890;25.340;2023-02-11T21:52:05;0;0;0
57373;PMS7003;43964;53.890;25.340;2023-02-11T21:57:03;0.3;0;0
57373;PMS7003;43964;53.890;25.340;2023-02-11T22:01:26;0.4;0.2;0
57373;PMS7003;43964;53.890;25.340;2023-02-11T22:06:55;0.2;0.2;0
57373;PMS7003;43964;53.890;25.340;2023-02-11T22:12:03;0.6;0.2;0.2
57373;PMS7003;43964;53.890;25.340;2023-02-11T22:16:25;0;0;0
57373;PMS7003;43964;53.890;25.340;2023-02-11T22:21:27;0.2;0.2;0
57373;PMS7003;43964;53.890;25.340;2023-02-11T22:27:05;0;0;0
57373;PMS7003;43964;53.890;25.340;2023-02-11T22:31:30;0.2;0;0
57373;PMS7003;43964;53.890;25.340;2023-02-11T22:36:14;0;0;0
57373;PMS7003;43964;53.890;25.340;2023-02-11T22:41:13;0;0;0
57373;PMS7003;43964;53.890;25.340;2023-02-11T22:46:49;0;0;0
57373;PMS7003;43964;53.890;25.340;2023-02-11T22:51:51;0;0;0
57373;PMS7003;43964;53.890;25.340;2023-02-11T22:56:37;0;0;0
57373;PMS7003;43964;53.890;25.340;2023-02-11T23:01:59;0;0;0
57373;PMS7003;43964;53.890;25.340;2023-02-11T23:06:23;0;0;0
57373;PMS7003;43964;53.890;25.340;2023-02-11T23:11:51;0;0;0
57373;PMS7003;43964;53.890;25.340;2023-02-11T23:16:13;0;0;0
57373;PMS7003;43964;53.890;25.340;2023-02-11T23:22:03;0.6;0.2;0
57373;PMS7003;43964;53.890;25.340;2023-02-11T23:26:13;0;0;0
57373;PMS7003;43964;53.890;25.340;2023-02-11T23:31:14;0;0;0
57373;PMS7003;43964;53.890;25.340;2023-02-11T23:36:41;0;0;0
57373;PMS7003;43964;53.890;25.340;2023-02-11T23:41:51;0;0;0
57373;PMS7003;43964;53.890;25.340;2023-02-11T23:47:03;0;0;0
57373;PMS7003;43964;53.890;25.340;2023-02-11T23:51:39;0.2;0.2;0
57373;PMS7003;43964;53.890;25.340;2023-02-11T23:57:05;0;0;0
